sensor_id;sensor_type;location;lat;lon;timestamp;pressure;altitude;pressure_sealevel;temperature;humidity
65019;BME280;66069;51.164;-114.452;2023-01-31T00:00:53;87805.53;;;18.61;37.95
65019;BME280;66069;51.164;-114.452;2023-01-31T00:03:22;87795.38;;;18.56;37.94
65019;BME280;66069;51.164;-114.452;2023-01-31T00:05:48;87785.03;;;18.62;38.22
65019;BME280;66069;51.164;-114.452;2023-01-31T00:08:14;87793.31;;;18.67;38.10
65019;BME280;66069;51.164;-114.452;2023-01-31T00:10:44;87782.53;;;18.74;38.00
65019;BME280;66069;51.164;-114.452;2023-01-31T00:13:10;87744.94;;;18.56;38.39
65019;BME280;66069;51.164;-114.452;2023-01-31T00:15:36;87762.97;;;18.65;38.56
65019;BME280;66069;51.164;-114.452;2023-01-31T00:18:03;87770.25;;;18.61;38.76
65019;BME280;66069;51.164;-114.452;2023-01-31T00:20:29;87769.19;;;18.58;38.53
65019;BME280;66069;51.164;-114.452;2023-01-31T00:22:55;87748.94;;;18.44;38.82
65019;BME280;66069;51.164;-114.452;2023-01-31T00:25:22;87745.97;;;18.42;38.90
65019;BME280;66069;51.164;-114.452;2023-01-31T00:27:48;87722.28;;;18.32;38.96
65019;BME280;66069;51.164;-114.452;2023-01-31T00:30:14;87748.63;;;18.42;39.03
65019;BME280;66069;51.164;-114.452;2023-01-31T00:32:41;87739.31;;;18.34;39.30
65019;BME280;66069;51.164;-114.452;2023-01-31T00:35:07;87742.38;;;18.33;39.02
65019;BME280;66069;51.164;-114.452;2023-01-31T00:37:34;87731.06;;;18.28;39.29
65019;BME280;66069;51.164;-114.452;2023-01-31T00:40:00;87720.66;;;18.18;39.23
65019;BME280;66069;51.164;-114.452;2023-01-31T00:42:26;87715.75;;;18.16;39.34
65019;BME280;66069;51.164;-114.452;2023-01-31T00:44:52;87703.28;;;18.13;39.30
65019;BME280;66069;51.164;-114.452;2023-01-31T00:47:19;87684.13;;;18.06;39.32
65019;BME280;66069;51.164;-114.452;2023-01-31T00:49:45;87703.97;;;18.17;39.36
65019;BME280;66069;51.164;-114.452;2023-01-31T00:52:11;87699.84;;;18.16;39.54
65019;BME280;66069;51.164;-114.452;2023-01-31T00:54:38;87661.69;;;17.90;39.43
65019;BME280;66069;51.164;-114.452;2023-01-31T00:57:04;87689.38;;;18.09;39.51
65019;BME280;66069;51.164;-114.452;2023-01-31T00:59:33;87689.38;;;18.09;39.60
65019;BME280;66069;51.164;-114.452;2023-01-31T01:01:59;87658.28;;;17.90;39.68
65019;BME280;66069;51.164;-114.452;2023-01-31T01:04:26;87675.88;;;18.00;39.43
65019;BME280;66069;51.164;-114.452;2023-01-31T01:06:52;87677.38;;;18.01;39.69
65019;BME280;66069;51.164;-114.452;2023-01-31T01:09:19;87671.25;;;18.04;39.71
65019;BME280;66069;51.164;-114.452;2023-01-31T01:11:48;87658.16;;;17.97;39.63
65019;BME280;66069;51.164;-114.452;2023-01-31T01:14:17;87649.06;;;17.94;39.81
65019;BME280;66069;51.164;-114.452;2023-01-31T01:16:43;87652.47;;;17.95;39.75
65019;BME280;66069;51.164;-114.452;2023-01-31T01:19:17;87654.75;;;17.96;39.83
65019;BME280;66069;51.164;-114.452;2023-01-31T01:21:44;87641.25;;;17.87;39.82
65019;BME280;66069;51.164;-114.452;2023-01-31T01:24:19;87655.81;;;17.99;39.82
65019;BME280;66069;51.164;-114.452;2023-01-31T01:26:46;87648.59;;;17.99;39.79
65019;BME280;66069;51.164;-114.452;2023-01-31T01:29:12;87647.44;;;18.00;39.85
65019;BME280;66069;51.164;-114.452;2023-01-31T01:31:39;87645.94;;;17.99;39.87
65019;BME280;66069;51.164;-114.452;2023-01-31T01:34:14;87639.50;;;18.00;39.86
65019;BME280;66069;51.164;-114.452;2023-01-31T01:36:41;87624.88;;;17.92;39.84
65019;BME280;66069;51.164;-114.452;2023-01-31T01:39:10;87635.69;;;18.01;39.84
65019;BME280;66069;51.164;-114.452;2023-01-31T01:41:38;87628.88;;;18.00;40.02
65019;BME280;66069;51.164;-114.452;2023-01-31T01:49:45;87608.69;;;17.87;40.10
65019;BME280;66069;51.164;-114.452;2023-01-31T01:52:13;87606.78;;;17.87;40.10
65019;BME280;66069;51.164;-114.452;2023-01-31T01:54:48;87588.78;;;17.79;40.28
65019;BME280;66069;51.164;-114.452;2023-01-31T01:57:20;87610.94;;;17.88;39.95
65019;BME280;66069;51.164;-114.452;2023-01-31T02:00:02;87601.09;;;17.89;40.14
65019;BME280;66069;51.164;-114.452;2023-01-31T02:02:30;87591.75;;;17.81;40.16
65019;BME280;66069;51.164;-114.452;2023-01-31T02:04:57;87598.09;;;17.87;40.10
65019;BME280;66069;51.164;-114.452;2023-01-31T02:07:23;87607.06;;;17.93;40.08
65019;BME280;66069;51.164;-114.452;2023-01-31T02:12:38;87580.00;;;17.82;40.35
65019;BME280;66069;51.164;-114.452;2023-01-31T02:15:05;87593.13;;;17.89;40.21
65019;BME280;66069;51.164;-114.452;2023-01-31T02:17:32;87600.25;;;17.92;40.13
65019;BME280;66069;51.164;-114.452;2023-01-31T02:23:21;87605.25;;;17.90;40.24
65019;BME280;66069;51.164;-114.452;2023-01-31T02:28:53;87605.25;;;17.90;40.21
65019;BME280;66069;51.164;-114.452;2023-01-31T02:37:28;87577.56;;;17.91;40.44
65019;BME280;66069;51.164;-114.452;2023-01-31T02:55:58;87554.75;;;17.93;40.49
65019;BME280;66069;51.164;-114.452;2023-01-31T03:01:20;87551.69;;;17.95;40.57
65019;BME280;66069;51.164;-114.452;2023-01-31T03:03:49;87541.97;;;17.88;40.63
65019;BME280;66069;51.164;-114.452;2023-01-31T03:09:07;87540.84;;;17.89;40.64
65019;BME280;66069;51.164;-114.452;2023-01-31T03:11:48;87526.91;;;17.85;40.48
65019;BME280;66069;51.164;-114.452;2023-01-31T03:14:30;87543.41;;;17.93;40.43
65019;BME280;66069;51.164;-114.452;2023-01-31T03:20:03;87541.84;;;17.95;40.65
65019;BME280;66069;51.164;-114.452;2023-01-31T03:22:36;87526.41;;;17.90;40.64
65019;BME280;66069;51.164;-114.452;2023-01-31T03:25:06;87524.41;;;17.94;40.63
65019;BME280;66069;51.164;-114.452;2023-01-31T03:27:34;87536.53;;;17.95;40.73
65019;BME280;66069;51.164;-114.452;2023-01-31T03:30:14;87517.97;;;17.95;40.75
65019;BME280;66069;51.164;-114.452;2023-01-31T03:32:53;87526.75;;;17.92;40.62
65019;BME280;66069;51.164;-114.452;2023-01-31T03:35:26;87516.97;;;17.89;40.63
65019;BME280;66069;51.164;-114.452;2023-01-31T03:38:03;87527.81;;;17.95;40.53
65019;BME280;66069;51.164;-114.452;2023-01-31T03:40:39;87520.63;;;17.95;40.41
65019;BME280;66069;51.164;-114.452;2023-01-31T03:46:19;87512.72;;;17.92;40.51
65019;BME280;66069;51.164;-114.452;2023-01-31T03:48:43;87512.25;;;17.97;40.79
65019;BME280;66069;51.164;-114.452;2023-01-31T03:51:17;87520.22;;;17.97;40.73
65019;BME280;66069;51.164;-114.452;2023-01-31T03:53:58;87497.31;;;17.87;40.55
65019;BME280;66069;51.164;-114.452;2023-01-31T03:59:02;87516.47;;;17.94;40.69
65019;BME280;66069;51.164;-114.452;2023-01-31T04:01:32;87509.59;;;17.97;40.62
65019;BME280;66069;51.164;-114.452;2023-01-31T04:04:07;87512.56;;;17.99;40.76
65019;BME280;66069;51.164;-114.452;2023-01-31T04:06:34;87503.19;;;17.94;40.70
65019;BME280;66069;51.164;-114.452;2023-01-31T04:09:00;87484.47;;;17.85;40.91
65019;BME280;66069;51.164;-114.452;2023-01-31T04:11:27;87496.41;;;17.93;40.97
65019;BME280;66069;51.164;-114.452;2023-01-31T04:13:53;87509.19;;;17.98;40.91
65019;BME280;66069;51.164;-114.452;2023-01-31T04:16:20;87510.66;;;17.99;40.95
65019;BME280;66069;51.164;-114.452;2023-01-31T04:18:48;87504.63;;;17.99;40.86
65019;BME280;66069;51.164;-114.452;2023-01-31T04:21:15;87507.94;;;18.03;40.80
65019;BME280;66069;51.164;-114.452;2023-01-31T04:23:41;87516.66;;;18.03;40.77
65019;BME280;66069;51.164;-114.452;2023-01-31T04:26:08;87497.16;;;17.94;40.97
65019;BME280;66069;51.164;-114.452;2023-01-31T04:28:34;87507.53;;;18.05;40.66
65019;BME280;66069;51.164;-114.452;2023-01-31T04:31:00;87490.03;;;17.91;40.75
65019;BME280;66069;51.164;-114.452;2023-01-31T04:33:26;87504.47;;;18.06;40.90
65019;BME280;66069;51.164;-114.452;2023-01-31T04:35:53;87502.56;;;18.07;40.78
65019;BME280;66069;51.164;-114.452;2023-01-31T04:38:19;87480.91;;;17.92;40.88
65019;BME280;66069;51.164;-114.452;2023-01-31T04:40:45;87502.97;;;18.05;40.91
65019;BME280;66069;51.164;-114.452;2023-01-31T04:43:12;87499.91;;;18.07;40.86
65019;BME280;66069;51.164;-114.452;2023-01-31T04:45:38;87485.72;;;17.97;40.63
65019;BME280;66069;51.164;-114.452;2023-01-31T04:48:05;87467.88;;;17.81;40.80
65019;BME280;66069;51.164;-114.452;2023-01-31T04:50:31;87477.56;;;17.88;40.63
65019;BME280;66069;51.164;-114.452;2023-01-31T04:52:57;87497.34;;;18.03;40.77
65019;BME280;66069;51.164;-114.452;2023-01-31T04:55:24;87488.72;;;17.99;40.53
65019;BME280;66069;51.164;-114.452;2023-01-31T04:57:52;87493.59;;;18.00;40.58
65019;BME280;66069;51.164;-114.452;2023-01-31T05:00:18;87485.31;;;17.98;40.78
65019;BME280;66069;51.164;-114.452;2023-01-31T05:02:45;87480.00;;;17.98;40.63
65019;BME280;66069;51.164;-114.452;2023-01-31T05:05:11;87478.31;;;17.88;40.61
65019;BME280;66069;51.164;-114.452;2023-01-31T05:07:38;87457.53;;;17.87;40.67
65019;BME280;66069;51.164;-114.452;2023-01-31T05:10:05;87473.22;;;17.97;40.63
65019;BME280;66069;51.164;-114.452;2023-01-31T05:12:31;87463.25;;;17.85;40.39
65019;BME280;66069;51.164;-114.452;2023-01-31T05:14:58;87470.97;;;17.96;40.52
65019;BME280;66069;51.164;-114.452;2023-01-31T05:17:24;87487.28;;;17.94;40.56
65019;BME280;66069;51.164;-114.452;2023-01-31T05:19:58;87488.44;;;17.93;40.35
65019;BME280;66069;51.164;-114.452;2023-01-31T05:22:25;87473.78;;;17.89;40.42
65019;BME280;66069;51.164;-114.452;2023-01-31T05:24:51;87457.34;;;17.78;40.37
65019;BME280;66069;51.164;-114.452;2023-01-31T05:27:18;87470.88;;;17.83;40.30
65019;BME280;66069;51.164;-114.452;2023-01-31T05:29:45;87476.09;;;17.87;40.32
65019;BME280;66069;51.164;-114.452;2023-01-31T05:32:12;87481.75;;;17.89;40.22
65019;BME280;66069;51.164;-114.452;2023-01-31T05:34:39;87474.19;;;17.87;40.21
65019;BME280;66069;51.164;-114.452;2023-01-31T05:37:05;87474.66;;;17.82;40.18
65019;BME280;66069;51.164;-114.452;2023-01-31T05:39:32;87484.03;;;17.87;40.08
65019;BME280;66069;51.164;-114.452;2023-01-31T05:41:58;87484.47;;;17.85;40.09
65019;BME280;66069;51.164;-114.452;2023-01-31T05:44:24;87482.97;;;17.84;40.10
65019;BME280;66069;51.164;-114.452;2023-01-31T05:46:51;87469.03;;;17.80;40.21
65019;BME280;66069;51.164;-114.452;2023-01-31T05:49:17;87467.53;;;17.79;40.26
65019;BME280;66069;51.164;-114.452;2023-01-31T05:51:43;87464.47;;;17.81;40.23
65019;BME280;66069;51.164;-114.452;2023-01-31T05:54:10;87465.78;;;17.72;40.15
65019;BME280;66069;51.164;-114.452;2023-01-31T05:56:37;87471.34;;;17.78;40.17
65019;BME280;66069;51.164;-114.452;2023-01-31T05:59:04;87451.56;;;17.63;40.03
65019;BME280;66069;51.164;-114.452;2023-01-31T06:01:30;87466.88;;;17.75;40.17
65019;BME280;66069;51.164;-114.452;2023-01-31T06:03:56;87456.72;;;17.70;40.06
65019;BME280;66069;51.164;-114.452;2023-01-31T06:06:23;87442.22;;;17.58;40.23
65019;BME280;66069;51.164;-114.452;2023-01-31T06:08:49;87461.28;;;17.69;39.99
65019;BME280;66069;51.164;-114.452;2023-01-31T06:11:18;87460.63;;;17.65;40.19
65019;BME280;66069;51.164;-114.452;2023-01-31T06:13:45;87451.31;;;17.57;40.06
65019;BME280;66069;51.164;-114.452;2023-01-31T06:16:13;87458.34;;;17.64;39.94
65019;BME280;66069;51.164;-114.452;2023-01-31T06:18:40;87445.25;;;17.57;40.07
65019;BME280;66069;51.164;-114.452;2023-01-31T06:21:06;87447.84;;;17.60;40.17
65019;BME280;66069;51.164;-114.452;2023-01-31T06:23:33;87450.91;;;17.59;40.05
65019;BME280;66069;51.164;-114.452;2023-01-31T06:25:59;87456.22;;;17.59;40.04
65019;BME280;66069;51.164;-114.452;2023-01-31T06:28:26;87453.97;;;17.57;40.05
65019;BME280;66069;51.164;-114.452;2023-01-31T06:30:52;87455.13;;;17.56;39.91
65019;BME280;66069;51.164;-114.452;2023-01-31T06:33:18;87441.53;;;17.54;40.02
65019;BME280;66069;51.164;-114.452;2023-01-31T06:35:45;87447.25;;;17.53;39.87
65019;BME280;66069;51.164;-114.452;2023-01-31T06:38:14;87442.34;;;17.51;40.03
65019;BME280;66069;51.164;-114.452;2023-01-31T06:40:41;87440.13;;;17.49;39.94
65019;BME280;66069;51.164;-114.452;2023-01-31T06:43:07;87437.88;;;17.48;39.85
65019;BME280;66069;51.164;-114.452;2023-01-31T06:45:33;87433.75;;;17.47;40.02
65019;BME280;66069;51.164;-114.452;2023-01-31T06:48:00;87424.09;;;17.37;39.96
65019;BME280;66069;51.164;-114.452;2023-01-31T06:50:26;87429.66;;;17.42;39.92
65019;BME280;66069;51.164;-114.452;2023-01-31T06:52:52;87427.00;;;17.42;39.86
65019;BME280;66069;51.164;-114.452;2023-01-31T06:55:19;87428.19;;;17.41;39.98
65019;BME280;66069;51.164;-114.452;2023-01-31T06:57:49;87423.03;;;17.34;39.81
65019;BME280;66069;51.164;-114.452;2023-01-31T07:00:16;87428.97;;;17.38;39.87
65019;BME280;66069;51.164;-114.452;2023-01-31T07:02:44;87429.41;;;17.37;39.95
65019;BME280;66069;51.164;-114.452;2023-01-31T07:05:10;87423.34;;;17.36;39.89
65019;BME280;66069;51.164;-114.452;2023-01-31T07:07:37;87429.81;;;17.35;39.60
65019;BME280;66069;51.164;-114.452;2023-01-31T07:10:03;87421.53;;;17.33;39.89
65019;BME280;66069;51.164;-114.452;2023-01-31T07:12:30;87430.63;;;17.32;39.76
65019;BME280;66069;51.164;-114.452;2023-01-31T07:14:56;87408.25;;;17.17;39.89
65019;BME280;66069;51.164;-114.452;2023-01-31T07:17:22;87401.03;;;17.17;39.84
65019;BME280;66069;51.164;-114.452;2023-01-31T07:19:49;87416.38;;;17.26;39.82
65019;BME280;66069;51.164;-114.452;2023-01-31T07:22:15;87413.72;;;17.26;39.80
65019;BME280;66069;51.164;-114.452;2023-01-31T07:24:41;87420.59;;;17.23;39.76
65019;BME280;66069;51.164;-114.452;2023-01-31T07:27:08;87415.44;;;17.16;39.77
65019;BME280;66069;51.164;-114.452;2023-01-31T07:29:37;87404.25;;;17.09;39.86
65019;BME280;66069;51.164;-114.452;2023-01-31T07:32:03;87413.13;;;17.18;39.47
65019;BME280;66069;51.164;-114.452;2023-01-31T07:34:30;87418.84;;;17.17;39.82
65019;BME280;66069;51.164;-114.452;2023-01-31T07:36:56;87410.63;;;17.11;39.88
65019;BME280;66069;51.164;-114.452;2023-01-31T07:39:23;87407.38;;;17.04;39.91
65019;BME280;66069;51.164;-114.452;2023-01-31T07:41:49;87377.28;;;16.94;39.85
65019;BME280;66069;51.164;-114.452;2023-01-31T07:44:15;87409.88;;;17.11;39.86
65019;BME280;66069;51.164;-114.452;2023-01-31T07:46:42;87398.59;;;17.07;39.80
65019;BME280;66069;51.164;-114.452;2023-01-31T07:49:09;87397.44;;;17.08;39.83
65019;BME280;66069;51.164;-114.452;2023-01-31T07:51:36;87396.38;;;17.05;40.02
65019;BME280;66069;51.164;-114.452;2023-01-31T07:54:04;87395.69;;;17.01;39.81
65019;BME280;66069;51.164;-114.452;2023-01-31T07:56:31;87389.31;;;16.99;39.75
65019;BME280;66069;51.164;-114.452;2023-01-31T07:58:58;87390.38;;;17.01;39.84
65019;BME280;66069;51.164;-114.452;2023-01-31T08:01:26;87391.53;;;17.00;39.74
65019;BME280;66069;51.164;-114.452;2023-01-31T08:04:13;87381.38;;;16.99;39.74
65019;BME280;66069;51.164;-114.452;2023-01-31T08:06:40;87368.41;;;16.84;39.86
65019;BME280;66069;51.164;-114.452;2023-01-31T08:09:07;87378.66;;;16.82;39.76
65019;BME280;66069;51.164;-114.452;2023-01-31T08:11:33;87377.44;;;16.87;39.84
65019;BME280;66069;51.164;-114.452;2023-01-31T08:14:00;87370.31;;;16.84;39.76
65019;BME280;66069;51.164;-114.452;2023-01-31T08:16:26;87379.34;;;16.86;39.67
65019;BME280;66069;51.164;-114.452;2023-01-31T08:18:53;87363.25;;;16.77;39.73
65019;BME280;66069;51.164;-114.452;2023-01-31T08:21:19;87348.28;;;16.67;39.88
65019;BME280;66069;51.164;-114.452;2023-01-31T08:23:46;87366.97;;;16.80;39.59
65019;BME280;66069;51.164;-114.452;2023-01-31T08:26:14;87376.69;;;16.86;39.67
65019;BME280;66069;51.164;-114.452;2023-01-31T08:28:42;87369.16;;;16.85;39.75
65019;BME280;66069;51.164;-114.452;2023-01-31T08:31:20;87356.94;;;16.71;39.60
65019;BME280;66069;51.164;-114.452;2023-01-31T08:33:47;87352.84;;;16.66;39.78
65019;BME280;66069;51.164;-114.452;2023-01-31T08:38:42;87345.38;;;16.61;39.75
65019;BME280;66069;51.164;-114.452;2023-01-31T08:41:10;87369.03;;;16.72;39.79
65019;BME280;66069;51.164;-114.452;2023-01-31T08:43:36;87376.16;;;16.75;39.63
65019;BME280;66069;51.164;-114.452;2023-01-31T08:46:04;87358.19;;;16.63;39.63
65019;BME280;66069;51.164;-114.452;2023-01-31T08:48:37;87370.94;;;16.72;39.74
65019;BME280;66069;51.164;-114.452;2023-01-31T08:51:06;87375.47;;;16.71;39.79
65019;BME280;66069;51.164;-114.452;2023-01-31T08:53:33;87377.75;;;16.69;39.79
65019;BME280;66069;51.164;-114.452;2023-01-31T08:56:01;87375.97;;;16.62;39.83
65019;BME280;66069;51.164;-114.452;2023-01-31T08:58:29;87380.81;;;16.67;39.75
65019;BME280;66069;51.164;-114.452;2023-01-31T09:01:08;87379.72;;;16.65;39.91
65019;BME280;66069;51.164;-114.452;2023-01-31T09:03:35;87373.81;;;16.57;39.81
65019;BME280;66069;51.164;-114.452;2023-01-31T09:06:03;87375.31;;;16.58;39.63
65019;BME280;66069;51.164;-114.452;2023-01-31T09:08:30;87384.38;;;16.57;39.67
65019;BME280;66069;51.164;-114.452;2023-01-31T09:10:57;87376.13;;;16.55;39.69
65019;BME280;66069;51.164;-114.452;2023-01-31T09:13:33;87381.75;;;16.57;39.81
65019;BME280;66069;51.164;-114.452;2023-01-31T09:16:08;87382.91;;;16.56;39.73
65019;BME280;66069;51.164;-114.452;2023-01-31T09:18:36;87378.81;;;16.52;39.75
65019;BME280;66069;51.164;-114.452;2023-01-31T09:21:04;87380.09;;;16.43;39.60
65019;BME280;66069;51.164;-114.452;2023-01-31T09:23:31;87359.88;;;16.33;39.95
65019;BME280;66069;51.164;-114.452;2023-01-31T09:25:57;87370.00;;;16.38;39.74
65019;BME280;66069;51.164;-114.452;2023-01-31T09:28:24;87388.31;;;16.49;39.71
65019;BME280;66069;51.164;-114.452;2023-01-31T09:30:51;87395.94;;;16.47;39.74
65019;BME280;66069;51.164;-114.452;2023-01-31T09:33:21;87398.63;;;16.43;39.57
65019;BME280;66069;51.164;-114.452;2023-01-31T09:35:55;87404.25;;;16.46;39.72
65019;BME280;66069;51.164;-114.452;2023-01-31T09:38:23;87405.53;;;16.37;39.71
65019;BME280;66069;51.164;-114.452;2023-01-31T09:40:50;87405.06;;;16.42;39.62
65019;BME280;66069;51.164;-114.452;2023-01-31T09:43:18;87398.44;;;16.34;39.86
65019;BME280;66069;51.164;-114.452;2023-01-31T09:45:47;87398.88;;;16.29;39.82
65019;BME280;66069;51.164;-114.452;2023-01-31T09:48:19;87403.31;;;16.36;39.58
65019;BME280;66069;51.164;-114.452;2023-01-31T09:50:53;87409.34;;;16.36;39.55
65019;BME280;66069;51.164;-114.452;2023-01-31T09:53:23;87415.03;;;16.35;39.69
65019;BME280;66069;51.164;-114.452;2023-01-31T10:04:37;87415.50;;;16.30;39.53
65019;BME280;66069;51.164;-114.452;2023-01-31T10:07:24;87400.97;;;16.18;39.66
65019;BME280;66069;51.164;-114.452;2023-01-31T10:09:56;87418.59;;;16.25;39.63
65019;BME280;66069;51.164;-114.452;2023-01-31T10:12:44;87416.31;;;16.27;39.56
65019;BME280;66069;51.164;-114.452;2023-01-31T10:15:22;87412.56;;;16.24;39.73
65019;BME280;66069;51.164;-114.452;2023-01-31T10:17:57;87399.97;;;16.08;39.63
65019;BME280;66069;51.164;-114.452;2023-01-31T10:26:00;87424.34;;;16.20;39.65
65019;BME280;66069;51.164;-114.452;2023-01-31T10:28:47;87430.06;;;16.18;39.71
65019;BME280;66069;51.164;-114.452;2023-01-31T10:31:29;87442.94;;;16.16;39.79
65019;BME280;66069;51.164;-114.452;2023-01-31T10:44:51;87440.41;;;16.09;39.69
65019;BME280;66069;51.164;-114.452;2023-01-31T10:47:23;87448.72;;;16.07;39.62
65019;BME280;66069;51.164;-114.452;2023-01-31T10:49:52;87415.44;;;15.86;39.79
65019;BME280;66069;51.164;-114.452;2023-01-31T10:53:01;87434.97;;;15.96;39.89
65019;BME280;66069;51.164;-114.452;2023-01-31T10:58:20;87410.28;;;15.79;39.68
65019;BME280;66069;51.164;-114.452;2023-01-31T11:00:48;87462.06;;;16.00;39.70
65019;BME280;66069;51.164;-114.452;2023-01-31T11:03:15;87457.19;;;15.99;39.65
65019;BME280;66069;51.164;-114.452;2023-01-31T11:05:55;87465.91;;;15.96;39.69
65019;BME280;66069;51.164;-114.452;2023-01-31T11:11:13;87475.75;;;15.95;39.64
65019;BME280;66069;51.164;-114.452;2023-01-31T11:14:01;87471.28;;;15.92;39.59
65019;BME280;66069;51.164;-114.452;2023-01-31T11:16:32;87450.72;;;15.76;39.72
65019;BME280;66069;51.164;-114.452;2023-01-31T11:19:02;87455.97;;;15.80;39.71
65019;BME280;66069;51.164;-114.452;2023-01-31T11:21:31;87466.13;;;15.81;39.84
65019;BME280;66069;51.164;-114.452;2023-01-31T11:24:05;87477.34;;;15.89;39.58
65019;BME280;66069;51.164;-114.452;2023-01-31T11:26:37;87477.75;;;15.87;39.77
65019;BME280;66069;51.164;-114.452;2023-01-31T11:29:23;87478.16;;;15.86;39.48
65019;BME280;66069;51.164;-114.452;2023-01-31T11:31:53;87467.69;;;15.79;39.47
65019;BME280;66069;51.164;-114.452;2023-01-31T11:34:25;87471.38;;;15.85;39.51
65019;BME280;66069;51.164;-114.452;2023-01-31T11:37:12;87478.94;;;15.83;39.68
65019;BME280;66069;51.164;-114.452;2023-01-31T11:39:39;87479.34;;;15.81;39.54
65019;BME280;66069;51.164;-114.452;2023-01-31T11:42:15;87489.59;;;15.79;39.55
65019;BME280;66069;51.164;-114.452;2023-01-31T11:45:00;87479.00;;;15.79;39.63
65019;BME280;66069;51.164;-114.452;2023-01-31T11:47:41;87469.59;;;15.78;39.51
65019;BME280;66069;51.164;-114.452;2023-01-31T11:50:19;87473.41;;;15.74;39.69
65019;BME280;66069;51.164;-114.452;2023-01-31T11:52:46;87450.56;;;15.60;39.68
65019;BME280;66069;51.164;-114.452;2023-01-31T11:55:18;87463.72;;;15.64;39.83
65019;BME280;66069;51.164;-114.452;2023-01-31T11:57:45;87471.94;;;15.73;39.73
65019;BME280;66069;51.164;-114.452;2023-01-31T12:00:21;87466.34;;;15.67;39.72
65019;BME280;66069;51.164;-114.452;2023-01-31T12:05:37;87446.16;;;15.50;39.62
65019;BME280;66069;51.164;-114.452;2023-01-31T12:08:17;87469.72;;;15.68;39.45
65019;BME280;66069;51.164;-114.452;2023-01-31T12:10:50;87464.16;;;15.62;39.77
65019;BME280;66069;51.164;-114.452;2023-01-31T12:13:19;87447.66;;;15.51;39.61
65019;BME280;66069;51.164;-114.452;2023-01-31T12:15:58;87467.16;;;15.60;39.76
65019;BME280;66069;51.164;-114.452;2023-01-31T12:18:33;87462.25;;;15.63;39.63
65019;BME280;66069;51.164;-114.452;2023-01-31T12:26:50;87464.94;;;15.59;39.79
65019;BME280;66069;51.164;-114.452;2023-01-31T12:37:40;87472.47;;;15.57;39.72
65019;BME280;66069;51.164;-114.452;2023-01-31T12:43:00;87463.03;;;15.59;39.87
65019;BME280;66069;51.164;-114.452;2023-01-31T12:57:11;87462.25;;;15.63;40.23
65019;BME280;66069;51.164;-114.452;2023-01-31T13:06:14;87479.66;;;15.87;40.49
65019;BME280;66069;51.164;-114.452;2023-01-31T13:08:30;87477.72;;;15.91;40.70
65019;BME280;66069;51.164;-114.452;2023-01-31T13:11:48;87484.78;;;15.98;41.05
65019;BME280;66069;51.164;-114.452;2023-01-31T13:14:19;87455.09;;;15.86;41.20
65019;BME280;66069;51.164;-114.452;2023-01-31T13:16:50;87475.59;;;16.06;41.09
65019;BME280;66069;51.164;-114.452;2023-01-31T13:19:25;87478.13;;;16.13;41.22
65019;BME280;66069;51.164;-114.452;2023-01-31T13:21:59;87470.16;;;16.17;41.32
65019;BME280;66069;51.164;-114.452;2023-01-31T13:24:40;87476.47;;;16.23;41.35
65019;BME280;66069;51.164;-114.452;2023-01-31T13:29:44;87478.28;;;16.26;41.48
65019;BME280;66069;51.164;-114.452;2023-01-31T13:32:15;87474.00;;;16.35;41.50
65019;BME280;66069;51.164;-114.452;2023-01-31T13:35:05;87470.47;;;16.42;41.70
65019;BME280;66069;51.164;-114.452;2023-01-31T13:37:38;87472.66;;;16.47;41.72
65019;BME280;66069;51.164;-114.452;2023-01-31T13:42:41;87463.16;;;16.50;41.70
65019;BME280;66069;51.164;-114.452;2023-01-31T13:45:08;87483.75;;;16.62;41.88
65019;BME280;66069;51.164;-114.452;2023-01-31T13:47:52;87481.06;;;16.65;41.92
65019;BME280;66069;51.164;-114.452;2023-01-31T13:50:40;87484.00;;;16.71;41.92
65019;BME280;66069;51.164;-114.452;2023-01-31T13:53:16;87476.31;;;16.77;42.09
65019;BME280;66069;51.164;-114.452;2023-01-31T13:55:47;87473.97;;;16.82;41.98
65019;BME280;66069;51.164;-114.452;2023-01-31T13:58:28;87465.22;;;16.85;42.11
65019;BME280;66069;51.164;-114.452;2023-01-31T14:01:07;87474.53;;;16.93;42.16
65019;BME280;66069;51.164;-114.452;2023-01-31T14:09:28;87476.50;;;17.09;42.09
65019;BME280;66069;51.164;-114.452;2023-01-31T14:14:48;87479.75;;;17.17;42.01
65019;BME280;66069;51.164;-114.452;2023-01-31T14:22:27;87474.91;;;17.32;42.01
65019;BME280;66069;51.164;-114.452;2023-01-31T14:25:04;87468.81;;;17.35;42.02
65019;BME280;66069;51.164;-114.452;2023-01-31T14:40:52;87484.97;;;17.60;41.99
65019;BME280;66069;51.164;-114.452;2023-01-31T14:46:16;87489.78;;;17.65;41.77
65019;BME280;66069;51.164;-114.452;2023-01-31T14:49:11;87492.34;;;17.69;41.92
65019;BME280;66069;51.164;-114.452;2023-01-31T14:57:58;87488.34;;;17.81;41.65
65019;BME280;66069;51.164;-114.452;2023-01-31T15:00:30;87478.69;;;17.70;41.66
65019;BME280;66069;51.164;-114.452;2023-01-31T15:05:47;87465.56;;;17.83;41.62
65019;BME280;66069;51.164;-114.452;2023-01-31T15:11:01;87480.16;;;17.91;41.49
65019;BME280;66069;51.164;-114.452;2023-01-31T15:13:45;87484.31;;;17.92;41.59
65019;BME280;66069;51.164;-114.452;2023-01-31T15:16:28;87486.53;;;17.94;41.42
65019;BME280;66069;51.164;-114.452;2023-01-31T15:19:17;87480.81;;;17.79;41.48
65019;BME280;66069;51.164;-114.452;2023-01-31T15:21:48;87490.09;;;17.87;41.38
65019;BME280;66069;51.164;-114.452;2023-01-31T15:24:28;87506.94;;;17.97;41.15
65019;BME280;66069;51.164;-114.452;2023-01-31T15:26:57;87510.03;;;17.95;41.04
65019;BME280;66069;51.164;-114.452;2023-01-31T15:32:20;87482.38;;;17.77;41.19
65019;BME280;66069;51.164;-114.452;2023-01-31T15:34:54;87525.44;;;18.00;41.15
65019;BME280;66069;51.164;-114.452;2023-01-31T15:37:28;87522.78;;;18.00;41.01